Terminal Aerodrome Forecast
Issued by NWS Sioux Falls, SD

Home | Current Version | Previous Version | Text Only | Print | Product List | Glossary On
Versions: 1 2 3 4 5 6 7 8 9 10 11 12 13 14 15 16 17 18 19 20 21 22 23 24 25 26 27 28 29 30
000
FTUS43 KFSD 290306 AAA
TAFSUX
TAF AMD
KSUX 290306Z 2903/2924 02010KT P6SM OVC010
     FM290800 36005KT P6SM SCT010
      TEMPO 2908/2909 BKN010
     FM291000 36005KT 4SM BR SCT005
      TEMPO 2910/2914 2SM BR
     FM291600 02004KT P6SM SCT025
     FM292100 10006KT P6SM SCT030=

USA.gov is the U.S. government's official web portal to all federal, state and local government web resources and services.